sensor_id;sensor_type;location;lat;lon;timestamp;pressure;altitude;pressure_sealevel;temperature;humidity
71795;BME280;59641;45.188;5.712;2023-04-23T00:00:37;98959.50;;;18.06;52.40
71795;BME280;59641;45.188;5.712;2023-04-23T00:03:07;98969.56;;;18.05;53.03
71795;BME280;59641;45.188;5.712;2023-04-23T00:05:34;98975.28;;;18.04;53.62
71795;BME280;59641;45.188;5.712;2023-04-23T00:08:01;98969.88;;;18.04;53.39
71795;BME280;59641;45.188;5.712;2023-04-23T00:10:27;98968.75;;;18.05;53.51
71795;BME280;59641;45.188;5.712;2023-04-23T00:12:52;98964.44;;;18.04;53.51
71795;BME280;59641;45.188;5.712;2023-04-23T00:15:18;98964.13;;;18.05;53.42
71795;BME280;59641;45.188;5.712;2023-04-23T00:17:46;98969.56;;;18.05;53.23
71795;BME280;59641;45.188;5.712;2023-04-23T00:20:12;98970.38;;;18.06;53.52
71795;BME280;59641;45.188;5.712;2023-04-23T00:22:38;98965.50;;;18.03;53.39
71795;BME280;59641;45.188;5.712;2023-04-23T00:25:03;98973.38;;;18.04;53.97
71795;BME280;59641;45.188;5.712;2023-04-23T00:27:29;98973.91;;;18.01;54.03
71795;BME280;59641;45.188;5.712;2023-04-23T00:29:54;98972.31;;;18.00;54.48
71795;BME280;59641;45.188;5.712;2023-04-23T00:32:19;98965.78;;;18.01;54.76
71795;BME280;59641;45.188;5.712;2023-04-23T00:34:46;98948.97;;;17.99;54.60
71795;BME280;59641;45.188;5.712;2023-04-23T00:37:13;98946.28;;;17.99;54.50
71795;BME280;59641;45.188;5.712;2023-04-23T00:39:38;98947.88;;;18.00;54.80
71795;BME280;59641;45.188;5.712;2023-04-23T00:42:05;98948.44;;;17.97;55.18
71795;BME280;59641;45.188;5.712;2023-04-23T00:44:37;98939.19;;;17.98;54.98
71795;BME280;59641;45.188;5.712;2023-04-23T00:47:02;98941.91;;;17.98;55.32
71795;BME280;59641;45.188;5.712;2023-04-23T00:49:28;98942.22;;;17.97;55.68
71795;BME280;59641;45.188;5.712;2023-04-23T00:51:54;98940.56;;;17.96;55.50
71795;BME280;59641;45.188;5.712;2023-04-23T00:54:19;98939.75;;;17.95;55.43
71795;BME280;59641;45.188;5.712;2023-04-23T00:56:47;98934.59;;;17.94;55.81
71795;BME280;59641;45.188;5.712;2023-04-23T00:59:12;98942.75;;;17.94;55.57
71795;BME280;59641;45.188;5.712;2023-04-23T01:01:38;98939.50;;;17.92;55.87
71795;BME280;59641;45.188;5.712;2023-04-23T01:04:03;98933.56;;;17.90;55.71
71795;BME280;59641;45.188;5.712;2023-04-23T01:06:29;98927.28;;;17.89;55.96
71795;BME280;59641;45.188;5.712;2023-04-23T01:08:56;98924.34;;;17.85;55.82
71795;BME280;59641;45.188;5.712;2023-04-23T01:11:21;98915.66;;;17.83;55.56
71795;BME280;59641;45.188;5.712;2023-04-23T01:13:47;98914.31;;;17.81;56.29
71795;BME280;59641;45.188;5.712;2023-04-23T01:16:12;98909.41;;;17.78;56.17
71795;BME280;59641;45.188;5.712;2023-04-23T01:18:37;98914.84;;;17.78;56.74
71795;BME280;59641;45.188;5.712;2023-04-23T01:21:05;98902.88;;;17.79;56.44
71795;BME280;59641;45.188;5.712;2023-04-23T01:23:31;98894.75;;;17.79;56.82
71795;BME280;59641;45.188;5.712;2023-04-23T01:25:57;98892.03;;;17.79;56.84
71795;BME280;59641;45.188;5.712;2023-04-23T01:28:23;98887.41;;;17.79;57.16
71795;BME280;59641;45.188;5.712;2023-04-23T01:30:49;98896.91;;;17.77;56.96
71795;BME280;59641;45.188;5.712;2023-04-23T01:33:15;98893.94;;;17.78;56.97
71795;BME280;59641;45.188;5.712;2023-04-23T01:35:42;98893.13;;;17.78;57.24
71795;BME280;59641;45.188;5.712;2023-04-23T01:38:09;98892.03;;;17.79;56.82
71795;BME280;59641;45.188;5.712;2023-04-23T01:40:36;98886.06;;;17.77;56.45
71795;BME280;59641;45.188;5.712;2023-04-23T01:43:02;98888.25;;;17.75;57.45
71795;BME280;59641;45.188;5.712;2023-04-23T01:45:29;98888.25;;;17.75;58.02
71795;BME280;59641;45.188;5.712;2023-04-23T01:47:55;98879.56;;;17.78;57.70
71795;BME280;59641;45.188;5.712;2023-04-23T01:50:21;98886.59;;;17.79;57.98
71795;BME280;59641;45.188;5.712;2023-04-23T01:52:49;98891.78;;;17.80;58.03
71795;BME280;59641;45.188;5.712;2023-04-23T01:55:15;98880.94;;;17.80;57.97
71795;BME280;59641;45.188;5.712;2023-04-23T01:57:40;98874.69;;;17.80;58.07
71795;BME280;59641;45.188;5.712;2023-04-23T02:00:07;98876.56;;;17.79;58.19
71795;BME280;59641;45.188;5.712;2023-04-23T02:02:34;98873.03;;;17.79;57.71
71795;BME280;59641;45.188;5.712;2023-04-23T02:05:00;98883.34;;;17.77;57.89
71795;BME280;59641;45.188;5.712;2023-04-23T02:07:32;98870.59;;;17.77;58.34
71795;BME280;59641;45.188;5.712;2023-04-23T02:09:58;98873.59;;;17.76;58.35
71795;BME280;59641;45.188;5.712;2023-04-23T02:12:24;98875.22;;;17.77;58.72
71795;BME280;59641;45.188;5.712;2023-04-23T02:14:49;98880.94;;;17.75;58.45
71795;BME280;59641;45.188;5.712;2023-04-23T02:17:15;98873.06;;;17.74;58.33
71795;BME280;59641;45.188;5.712;2023-04-23T02:19:40;98872.25;;;17.73;58.48
71795;BME280;59641;45.188;5.712;2023-04-23T02:22:06;98869.53;;;17.73;58.77
71795;BME280;59641;45.188;5.712;2023-04-23T02:24:32;98864.38;;;17.72;58.82
71795;BME280;59641;45.188;5.712;2023-04-23T02:26:58;98866.03;;;17.73;58.19
71795;BME280;59641;45.188;5.712;2023-04-23T02:29:23;98858.16;;;17.71;59.04
71795;BME280;59641;45.188;5.712;2023-04-23T02:31:49;98851.38;;;17.68;58.45
71795;BME280;59641;45.188;5.712;2023-04-23T02:34:14;98849.25;;;17.65;58.78
71795;BME280;59641;45.188;5.712;2023-04-23T02:36:39;98851.94;;;17.65;58.80
71795;BME280;59641;45.188;5.712;2023-04-23T02:39:05;98858.19;;;17.66;58.95
71795;BME280;59641;45.188;5.712;2023-04-23T02:41:30;98866.59;;;17.64;59.11
71795;BME280;59641;45.188;5.712;2023-04-23T02:43:56;98861.16;;;17.64;59.28
71795;BME280;59641;45.188;5.712;2023-04-23T02:46:21;98861.97;;;17.65;59.31
71795;BME280;59641;45.188;5.712;2023-04-23T02:48:47;98863.88;;;17.64;59.47
71795;BME280;59641;45.188;5.712;2023-04-23T02:51:12;98868.22;;;17.65;59.51
71795;BME280;59641;45.188;5.712;2023-04-23T02:53:38;98870.13;;;17.65;59.51
71795;BME280;59641;45.188;5.712;2023-04-23T02:56:04;98856.00;;;17.63;58.98
71795;BME280;59641;45.188;5.712;2023-04-23T02:58:30;98859.28;;;17.60;58.96
71795;BME280;59641;45.188;5.712;2023-04-23T03:00:56;98855.22;;;17.57;58.73
71795;BME280;59641;45.188;5.712;2023-04-23T03:03:21;98850.38;;;17.54;58.79
71795;BME280;59641;45.188;5.712;2023-04-23T03:05:50;98847.66;;;17.54;58.70
71795;BME280;59641;45.188;5.712;2023-04-23T03:08:15;98849.81;;;17.52;59.31
71795;BME280;59641;45.188;5.712;2023-04-23T03:10:41;98857.16;;;17.52;59.47
71795;BME280;59641;45.188;5.712;2023-04-23T03:13:06;98861.78;;;17.51;59.23
71795;BME280;59641;45.188;5.712;2023-04-23T03:15:32;98854.44;;;17.52;59.75
71795;BME280;59641;45.188;5.712;2023-04-23T03:17:57;98853.66;;;17.51;59.77
71795;BME280;59641;45.188;5.712;2023-04-23T03:20:23;98852.00;;;17.50;59.34
71795;BME280;59641;45.188;5.712;2023-04-23T03:22:48;98841.44;;;17.49;59.37
71795;BME280;59641;45.188;5.712;2023-04-23T03:25:14;98836.28;;;17.47;59.22
71795;BME280;59641;45.188;5.712;2023-04-23T03:27:39;98834.94;;;17.44;59.09
71795;BME280;59641;45.188;5.712;2023-04-23T03:30:06;98834.41;;;17.42;59.57
71795;BME280;59641;45.188;5.712;2023-04-23T03:32:33;98831.16;;;17.40;59.55
71795;BME280;59641;45.188;5.712;2023-04-23T03:34:58;98833.34;;;17.38;59.35
71795;BME280;59641;45.188;5.712;2023-04-23T03:37:24;98834.44;;;17.37;59.96
71795;BME280;59641;45.188;5.712;2023-04-23T03:39:49;98837.41;;;17.36;60.31
71795;BME280;59641;45.188;5.712;2023-04-23T03:42:15;98837.16;;;17.37;60.53
71795;BME280;59641;45.188;5.712;2023-04-23T03:44:40;98837.94;;;17.38;60.24
71795;BME280;59641;45.188;5.712;2023-04-23T03:47:06;98840.41;;;17.39;60.49
71795;BME280;59641;45.188;5.712;2023-04-23T03:49:31;98846.38;;;17.41;60.41
71795;BME280;59641;45.188;5.712;2023-04-23T03:51:56;98827.91;;;17.38;60.28
71795;BME280;59641;45.188;5.712;2023-04-23T03:54:22;98839.06;;;17.37;60.03
71795;BME280;59641;45.188;5.712;2023-04-23T03:56:49;98831.44;;;17.34;60.48
71795;BME280;59641;45.188;5.712;2023-04-23T03:59:15;98830.38;;;17.35;60.53
71795;BME280;59641;45.188;5.712;2023-04-23T04:01:41;98828.47;;;17.35;60.12
71795;BME280;59641;45.188;5.712;2023-04-23T04:04:06;98827.38;;;17.36;60.40
71795;BME280;59641;45.188;5.712;2023-04-23T04:06:32;98813.31;;;17.34;60.63
71795;BME280;59641;45.188;5.712;2023-04-23T04:08:57;98819.81;;;17.33;60.06
71795;BME280;59641;45.188;5.712;2023-04-23T04:11:23;98810.06;;;17.32;60.48
71795;BME280;59641;45.188;5.712;2023-04-23T04:13:48;98800.84;;;17.28;60.46
71795;BME280;59641;45.188;5.712;2023-04-23T04:16:13;98808.19;;;17.28;60.75
71795;BME280;59641;45.188;5.712;2023-04-23T04:18:39;98800.84;;;17.28;60.82
71795;BME280;59641;45.188;5.712;2023-04-23T04:21:04;98796.22;;;17.29;60.43
71795;BME280;59641;45.188;5.712;2023-04-23T04:23:29;98794.31;;;17.29;60.17
71795;BME280;59641;45.188;5.712;2023-04-23T04:25:55;98794.63;;;17.28;60.33
71795;BME280;59641;45.188;5.712;2023-04-23T04:28:21;98793.81;;;17.27;59.95
71795;BME280;59641;45.188;5.712;2023-04-23T04:30:50;98789.47;;;17.26;61.00
71795;BME280;59641;45.188;5.712;2023-04-23T04:33:15;98789.19;;;17.28;60.18
71795;BME280;59641;45.188;5.712;2023-04-23T04:35:40;98791.91;;;17.28;60.67
71795;BME280;59641;45.188;5.712;2023-04-23T04:38:07;98799.75;;;17.29;60.59
71795;BME280;59641;45.188;5.712;2023-04-23T04:40:33;98789.19;;;17.28;60.75
71795;BME280;59641;45.188;5.712;2023-04-23T04:42:58;98785.13;;;17.30;60.13
71795;BME280;59641;45.188;5.712;2023-04-23T04:45:24;98783.50;;;17.24;60.39
71795;BME280;59641;45.188;5.712;2023-04-23T04:47:50;98790.81;;;17.23;60.88
71795;BME280;59641;45.188;5.712;2023-04-23T04:50:16;98789.22;;;17.22;60.91
71795;BME280;59641;45.188;5.712;2023-04-23T04:52:41;98777.28;;;17.23;61.22
71795;BME280;59641;45.188;5.712;2023-04-23T04:55:07;98776.19;;;17.24;61.03
71795;BME280;59641;45.188;5.712;2023-04-23T04:57:33;98772.66;;;17.24;61.15
71795;BME280;59641;45.188;5.712;2023-04-23T05:00:01;98769.69;;;17.25;60.81
71795;BME280;59641;45.188;5.712;2023-04-23T05:02:34;98766.16;;;17.25;61.41
71795;BME280;59641;45.188;5.712;2023-04-23T05:04:59;98766.69;;;17.27;60.94
71795;BME280;59641;45.188;5.712;2023-04-23T05:07:24;98766.41;;;17.29;60.96
71795;BME280;59641;45.188;5.712;2023-04-23T05:09:50;98759.06;;;17.29;61.31
71795;BME280;59641;45.188;5.712;2023-04-23T05:12:15;98764.22;;;17.31;61.83
71795;BME280;59641;45.188;5.712;2023-04-23T05:14:40;98768.28;;;17.33;61.34
71795;BME280;59641;45.188;5.712;2023-04-23T05:17:06;98774.25;;;17.35;61.56
71795;BME280;59641;45.188;5.712;2023-04-23T05:19:31;98775.84;;;17.36;60.82
71795;BME280;59641;45.188;5.712;2023-04-23T05:21:56;98772.34;;;17.36;61.19
71795;BME280;59641;45.188;5.712;2023-04-23T05:24:22;98776.69;;;17.37;61.06
71795;BME280;59641;45.188;5.712;2023-04-23T05:26:47;98783.97;;;17.36;61.57
71795;BME280;59641;45.188;5.712;2023-04-23T05:29:13;98786.69;;;17.36;61.18
71795;BME280;59641;45.188;5.712;2023-04-23T05:31:42;98791.31;;;17.36;61.19
71795;BME280;59641;45.188;5.712;2023-04-23T05:34:07;98789.72;;;17.35;61.20
71795;BME280;59641;45.188;5.712;2023-04-23T05:36:32;98781.84;;;17.33;60.48
71795;BME280;59641;45.188;5.712;2023-04-23T05:38:58;98791.59;;;17.29;60.77
71795;BME280;59641;45.188;5.712;2023-04-23T05:41:23;98799.75;;;17.29;60.81
71795;BME280;59641;45.188;5.712;2023-04-23T05:43:48;98792.72;;;17.28;61.13
71795;BME280;59641;45.188;5.712;2023-04-23T05:46:14;98772.38;;;17.25;61.11
71795;BME280;59641;45.188;5.712;2023-04-23T05:48:39;98775.66;;;17.22;60.78
71795;BME280;59641;45.188;5.712;2023-04-23T05:51:04;98786.50;;;17.22;61.22
71795;BME280;59641;45.188;5.712;2023-04-23T05:53:30;98791.09;;;17.22;61.82
71795;BME280;59641;45.188;5.712;2023-04-23T05:55:55;98787.56;;;17.21;61.03
71795;BME280;59641;45.188;5.712;2023-04-23T05:58:21;98783.25;;;17.20;61.40
71795;BME280;59641;45.188;5.712;2023-04-23T06:00:46;98772.13;;;17.22;61.16
71795;BME280;59641;45.188;5.712;2023-04-23T06:03:12;98772.94;;;17.22;61.85
71795;BME280;59641;45.188;5.712;2023-04-23T06:05:37;98775.09;;;17.25;61.53
71795;BME280;59641;45.188;5.712;2023-04-23T06:08:03;98776.72;;;17.27;61.65
71795;BME280;59641;45.188;5.712;2023-04-23T06:10:28;98766.41;;;17.29;61.82
71795;BME280;59641;45.188;5.712;2023-04-23T06:12:54;98777.78;;;17.31;61.43
71795;BME280;59641;45.188;5.712;2023-04-23T06:15:19;98768.03;;;17.30;61.56
71795;BME280;59641;45.188;5.712;2023-04-23T06:17:45;98778.59;;;17.31;61.62
71795;BME280;59641;45.188;5.712;2023-04-23T06:20:10;98773.19;;;17.26;61.35
71795;BME280;59641;45.188;5.712;2023-04-23T06:22:36;98777.81;;;17.25;60.92
71795;BME280;59641;45.188;5.712;2023-04-23T06:25:01;98781.63;;;17.24;61.39
71795;BME280;59641;45.188;5.712;2023-04-23T06:27:27;98783.50;;;17.24;61.43
71795;BME280;59641;45.188;5.712;2023-04-23T06:29:52;98782.44;;;17.25;61.66
71795;BME280;59641;45.188;5.712;2023-04-23T06:32:18;98781.88;;;17.28;61.43
71795;BME280;59641;45.188;5.712;2023-04-23T06:34:43;98779.38;;;17.32;61.93
71795;BME280;59641;45.188;5.712;2023-04-23T06:37:08;98782.63;;;17.34;61.57
71795;BME280;59641;45.188;5.712;2023-04-23T06:39:34;98782.91;;;17.37;61.79
71795;BME280;59641;45.188;5.712;2023-04-23T06:41:59;98780.19;;;17.37;61.46
71795;BME280;59641;45.188;5.712;2023-04-23T06:44:25;98783.44;;;17.39;61.62
71795;BME280;59641;45.188;5.712;2023-04-23T06:46:51;98784.25;;;17.40;61.35
71795;BME280;59641;45.188;5.712;2023-04-23T06:49:17;98787.78;;;17.40;61.47
71795;BME280;59641;45.188;5.712;2023-04-23T06:51:42;98782.06;;;17.42;61.45
71795;BME280;59641;45.188;5.712;2023-04-23T06:54:08;98787.50;;;17.42;61.42
71795;BME280;59641;45.188;5.712;2023-04-23T06:56:33;98783.69;;;17.43;62.01
71795;BME280;59641;45.188;5.712;2023-04-23T06:58:59;98788.84;;;17.44;61.59
71795;BME280;59641;45.188;5.712;2023-04-23T07:01:25;98794.50;;;17.48;61.63
71795;BME280;59641;45.188;5.712;2023-04-23T07:03:52;98784.19;;;17.50;61.98
71795;BME280;59641;45.188;5.712;2023-04-23T07:06:18;98783.13;;;17.51;61.45
71795;BME280;59641;45.188;5.712;2023-04-23T07:08:44;98784.72;;;17.52;61.04
71795;BME280;59641;45.188;5.712;2023-04-23T07:11:09;98784.72;;;17.52;61.27
71795;BME280;59641;45.188;5.712;2023-04-23T07:13:35;98792.31;;;17.55;61.60
71795;BME280;59641;45.188;5.712;2023-04-23T07:16:01;98792.03;;;17.57;61.36
71795;BME280;59641;45.188;5.712;2023-04-23T07:18:26;98788.22;;;17.58;61.34
71795;BME280;59641;45.188;5.712;2023-04-23T07:20:51;98781.72;;;17.59;61.09
71795;BME280;59641;45.188;5.712;2023-04-23T07:23:17;98780.91;;;17.58;60.85
71795;BME280;59641;45.188;5.712;2023-04-23T07:25:42;98778.19;;;17.58;60.65
71795;BME280;59641;45.188;5.712;2023-04-23T07:28:07;98783.31;;;17.60;60.73
71795;BME280;59641;45.188;5.712;2023-04-23T07:30:33;98787.69;;;17.61;60.41
71795;BME280;59641;45.188;5.712;2023-04-23T07:32:58;98784.13;;;17.60;60.68
71795;BME280;59641;45.188;5.712;2023-04-23T07:35:24;98772.19;;;17.61;61.00
71795;BME280;59641;45.188;5.712;2023-04-23T07:37:50;98763.75;;;17.63;60.52
71795;BME280;59641;45.188;5.712;2023-04-23T07:40:20;98772.75;;;17.63;60.48
71795;BME280;59641;45.188;5.712;2023-04-23T07:42:45;98772.44;;;17.65;60.19
71795;BME280;59641;45.188;5.712;2023-04-23T07:45:11;98771.38;;;17.66;60.37
71795;BME280;59641;45.188;5.712;2023-04-23T07:47:37;98770.25;;;17.67;60.00
71795;BME280;59641;45.188;5.712;2023-04-23T07:50:02;98758.84;;;17.70;59.75
71795;BME280;59641;45.188;5.712;2023-04-23T07:52:28;98758.84;;;17.70;60.03
71795;BME280;59641;45.188;5.712;2023-04-23T07:54:53;98755.06;;;17.71;60.47
71795;BME280;59641;45.188;5.712;2023-04-23T07:57:18;98745.00;;;17.72;60.45
71795;BME280;59641;45.188;5.712;2023-04-23T07:59:44;98738.19;;;17.74;59.83
71795;BME280;59641;45.188;5.712;2023-04-23T08:02:09;98734.41;;;17.75;59.57
71795;BME280;59641;45.188;5.712;2023-04-23T08:04:35;98733.31;;;17.76;59.99
71795;BME280;59641;45.188;5.712;2023-04-23T08:07:00;98732.19;;;17.77;59.65
71795;BME280;59641;45.188;5.712;2023-04-23T08:09:25;98735.75;;;17.78;59.35
71795;BME280;59641;45.188;5.712;2023-04-23T08:11:51;98740.06;;;17.79;59.60
71795;BME280;59641;45.188;5.712;2023-04-23T08:14:17;98722.44;;;17.81;59.15
71795;BME280;59641;45.188;5.712;2023-04-23T08:16:43;98726.25;;;17.80;59.29
71795;BME280;59641;45.188;5.712;2023-04-23T08:19:08;98725.97;;;17.82;58.97
71795;BME280;59641;45.188;5.712;2023-04-23T08:21:34;98723.78;;;17.84;58.93
71795;BME280;59641;45.188;5.712;2023-04-23T08:23:59;98714.25;;;17.86;59.31
71795;BME280;59641;45.188;5.712;2023-04-23T08:26:26;98722.34;;;17.92;58.75
71795;BME280;59641;45.188;5.712;2023-04-23T08:28:52;98728.84;;;17.96;58.82
71795;BME280;59641;45.188;5.712;2023-04-23T08:31:18;98720.97;;;17.99;58.10
71795;BME280;59641;45.188;5.712;2023-04-23T08:33:43;98724.75;;;17.98;57.40
71795;BME280;59641;45.188;5.712;2023-04-23T08:36:09;98727.78;;;17.97;57.77
71795;BME280;59641;45.188;5.712;2023-04-23T08:38:34;98727.78;;;17.97;57.80
71795;BME280;59641;45.188;5.712;2023-04-23T08:41:00;98735.34;;;18.00;57.74
71795;BME280;59641;45.188;5.712;2023-04-23T08:43:37;98725.22;;;18.05;57.46
71795;BME280;59641;45.188;5.712;2023-04-23T08:46:10;98721.94;;;18.08;57.99
71795;BME280;59641;45.188;5.712;2023-04-23T08:48:37;98715.38;;;18.15;57.69
71795;BME280;59641;45.188;5.712;2023-04-23T08:51:04;98716.44;;;18.19;57.74
71795;BME280;59641;45.188;5.712;2023-04-23T08:53:31;98709.63;;;18.21;57.37
71795;BME280;59641;45.188;5.712;2023-04-23T08:55:58;98704.72;;;18.23;57.71
71795;BME280;59641;45.188;5.712;2023-04-23T08:58:24;98697.91;;;18.26;57.18
71795;BME280;59641;45.188;5.712;2023-04-23T09:00:52;98702.47;;;18.30;57.71
71795;BME280;59641;45.188;5.712;2023-04-23T09:03:18;98704.34;;;18.35;57.38
71795;BME280;59641;45.188;5.712;2023-04-23T09:05:45;98690.19;;;18.38;56.78
71795;BME280;59641;45.188;5.712;2023-04-23T09:08:11;98693.44;;;18.40;56.90
71795;BME280;59641;45.188;5.712;2023-04-23T09:10:39;98685.50;;;18.44;57.19
71795;BME280;59641;45.188;5.712;2023-04-23T09:13:05;98688.16;;;18.49;57.17
71795;BME280;59641;45.188;5.712;2023-04-23T09:15:31;98679.13;;;18.53;57.00
71795;BME280;59641;45.188;5.712;2023-04-23T09:17:57;98678.00;;;18.60;56.78
71795;BME280;59641;45.188;5.712;2023-04-23T09:20:23;98680.34;;;18.66;57.14
71795;BME280;59641;45.188;5.712;2023-04-23T09:22:50;98671.03;;;18.72;57.07
71795;BME280;59641;45.188;5.712;2023-04-23T09:25:18;98672.38;;;18.75;56.00
71795;BME280;59641;45.188;5.712;2023-04-23T09:27:45;98676.16;;;18.79;56.15
71795;BME280;59641;45.188;5.712;2023-04-23T09:30:11;98671.53;;;18.80;55.59
71795;BME280;59641;45.188;5.712;2023-04-23T09:32:39;98664.72;;;18.82;55.33
71795;BME280;59641;45.188;5.712;2023-04-23T09:35:07;98658.69;;;18.85;55.51
71795;BME280;59641;45.188;5.712;2023-04-23T09:37:33;98658.91;;;18.89;55.66
71795;BME280;59641;45.188;5.712;2023-04-23T09:40:01;98655.31;;;18.93;54.75
71795;BME280;59641;45.188;5.712;2023-04-23T09:42:28;98649.59;;;18.95;54.82
71795;BME280;59641;45.188;5.712;2023-04-23T09:44:59;98652.25;;;19.00;55.00
71795;BME280;59641;45.188;5.712;2023-04-23T09:47:24;98640.47;;;19.05;54.52
71795;BME280;59641;45.188;5.712;2023-04-23T09:49:50;98635.28;;;19.08;54.15
71795;BME280;59641;45.188;5.712;2023-04-23T09:52:16;98632.75;;;19.12;54.00
71795;BME280;59641;45.188;5.712;2023-04-23T09:54:42;98634.09;;;19.14;53.30
71795;BME280;59641;45.188;5.712;2023-04-23T09:57:10;98626.75;;;19.15;52.68
71795;BME280;59641;45.188;5.712;2023-04-23T09:59:36;98629.16;;;19.16;52.75
71795;BME280;59641;45.188;5.712;2023-04-23T10:02:05;98624.75;;;19.21;52.77
71795;BME280;59641;45.188;5.712;2023-04-23T10:04:31;98634.47;;;19.27;52.77
71795;BME280;59641;45.188;5.712;2023-04-23T10:07:03;98617.28;;;19.31;52.17
71795;BME280;59641;45.188;5.712;2023-04-23T10:09:29;98612.03;;;19.35;52.42
71795;BME280;59641;45.188;5.712;2023-04-23T10:11:57;98597.63;;;19.34;51.70
71795;BME280;59641;45.188;5.712;2023-04-23T10:14:24;98606.59;;;19.35;51.76
71795;BME280;59641;45.188;5.712;2023-04-23T10:16:51;98603.78;;;19.40;52.04
71795;BME280;59641;45.188;5.712;2023-04-23T10:19:22;98594.22;;;19.43;51.86
71795;BME280;59641;45.188;5.712;2023-04-23T10:21:59;98593.63;;;19.46;51.96
71795;BME280;59641;45.188;5.712;2023-04-23T10:24:31;98592.25;;;19.48;51.31
71795;BME280;59641;45.188;5.712;2023-04-23T10:26:58;98601.50;;;19.47;51.39
71795;BME280;59641;45.188;5.712;2023-04-23T10:29:29;98592.75;;;19.50;51.34
71795;BME280;59641;45.188;5.712;2023-04-23T10:31:57;98592.44;;;19.52;50.85
71795;BME280;59641;45.188;5.712;2023-04-23T10:34:25;98592.16;;;19.53;51.31
71795;BME280;59641;45.188;5.712;2023-04-23T10:36:51;98595.41;;;19.55;51.19
71795;BME280;59641;45.188;5.712;2023-04-23T10:39:20;98589.63;;;19.57;51.03
71795;BME280;59641;45.188;5.712;2023-04-23T10:41:47;98582.00;;;19.59;51.01
71795;BME280;59641;45.188;5.712;2023-04-23T10:44:13;98583.31;;;19.62;51.12
71795;BME280;59641;45.188;5.712;2023-04-23T10:46:53;98589.78;;;19.66;50.62
71795;BME280;59641;45.188;5.712;2023-04-23T10:49:21;98578.56;;;19.67;50.73
71795;BME280;59641;45.188;5.712;2023-04-23T10:51:47;98583.97;;;19.72;50.41
71795;BME280;59641;45.188;5.712;2023-04-23T10:54:14;98581.47;;;19.76;50.91
71795;BME280;59641;45.188;5.712;2023-04-23T10:56:40;98570.78;;;19.79;50.56
71795;BME280;59641;45.188;5.712;2023-04-23T10:59:21;98573.41;;;19.85;50.12
71795;BME280;59641;45.188;5.712;2023-04-23T11:01:48;98570.69;;;19.85;50.20
71795;BME280;59641;45.188;5.712;2023-04-23T11:06:52;98568.38;;;19.92;50.15
71795;BME280;59641;45.188;5.712;2023-04-23T11:11:55;98555.66;;;20.01;49.26
71795;BME280;59641;45.188;5.712;2023-04-23T11:14:46;98553.16;;;20.05;49.70
71795;BME280;59641;45.188;5.712;2023-04-23T11:17:13;98552.94;;;20.01;49.33
71795;BME280;59641;45.188;5.712;2023-04-23T11:19:40;98560.81;;;20.03;50.00
71795;BME280;59641;45.188;5.712;2023-04-23T11:22:11;98552.03;;;20.06;49.72
71795;BME280;59641;45.188;5.712;2023-04-23T11:24:39;98545.19;;;20.08;49.37
71795;BME280;59641;45.188;5.712;2023-04-23T11:27:12;98548.41;;;20.10;49.76
71795;BME280;59641;45.188;5.712;2023-04-23T11:29:40;98537.22;;;20.12;49.73
71795;BME280;59641;45.188;5.712;2023-04-23T11:32:06;98536.94;;;20.13;49.45
71795;BME280;59641;45.188;5.712;2023-04-23T11:34:38;98537.94;;;20.17;49.34
71795;BME280;59641;45.188;5.712;2023-04-23T11:37:04;98541.66;;;20.21;49.19
71795;BME280;59641;45.188;5.712;2023-04-23T11:39:30;98537.53;;;20.24;49.06
71795;BME280;59641;45.188;5.712;2023-04-23T11:41:55;98538.84;;;20.27;49.12
71795;BME280;59641;45.188;5.712;2023-04-23T11:44:23;98538.53;;;20.28;49.14
71795;BME280;59641;45.188;5.712;2023-04-23T11:46:49;98531.34;;;20.32;49.17
71795;BME280;59641;45.188;5.712;2023-04-23T11:49:15;98542.75;;;20.34;49.03
71795;BME280;59641;45.188;5.712;2023-04-23T11:51:45;98537.00;;;20.36;49.10
71795;BME280;59641;45.188;5.712;2023-04-23T11:54:11;98537.81;;;20.36;49.19
71795;BME280;59641;45.188;5.712;2023-04-23T11:56:38;98530.44;;;20.37;48.90
71795;BME280;59641;45.188;5.712;2023-04-23T11:59:04;98533.69;;;20.39;49.08
71795;BME280;59641;45.188;5.712;2023-04-23T12:01:48;98533.09;;;20.42;48.73
71795;BME280;59641;45.188;5.712;2023-04-23T12:04:21;98519.47;;;20.42;48.91
71795;BME280;59641;45.188;5.712;2023-04-23T12:06:48;98525.72;;;20.42;48.42
71795;BME280;59641;45.188;5.712;2023-04-23T12:09:15;98519.13;;;20.43;48.17
71795;BME280;59641;45.188;5.712;2023-04-23T12:11:41;98513.41;;;20.45;48.50
71795;BME280;59641;45.188;5.712;2023-04-23T12:14:08;98504.09;;;20.46;48.85
71795;BME280;59641;45.188;5.712;2023-04-23T12:16:36;98492.91;;;20.48;48.35
71795;BME280;59641;45.188;5.712;2023-04-23T12:19:02;98494.81;;;20.47;48.39
71795;BME280;59641;45.188;5.712;2023-04-23T12:21:28;98493.69;;;20.48;48.05
71795;BME280;59641;45.188;5.712;2023-04-23T12:23:55;98498.03;;;20.49;48.18
71795;BME280;59641;45.188;5.712;2023-04-23T12:26:24;98504.81;;;20.52;48.09
71795;BME280;59641;45.188;5.712;2023-04-23T12:28:51;98493.91;;;20.52;48.02
71795;BME280;59641;45.188;5.712;2023-04-23T12:31:21;98495.22;;;20.54;48.08
71795;BME280;59641;45.188;5.712;2023-04-23T12:33:55;98497.34;;;20.57;48.16
71795;BME280;59641;45.188;5.712;2023-04-23T12:36:26;98491.28;;;20.60;48.60
71795;BME280;59641;45.188;5.712;2023-04-23T12:38:52;98487.94;;;20.63;48.53
71795;BME280;59641;45.188;5.712;2023-04-23T12:41:17;98484.59;;;20.67;48.44
71795;BME280;59641;45.188;5.712;2023-04-23T12:43:43;98479.34;;;20.70;48.74
71795;BME280;59641;45.188;5.712;2023-04-23T12:46:13;98465.06;;;20.73;47.85
71795;BME280;59641;45.188;5.712;2023-04-23T12:48:38;98477.63;;;20.74;48.31
71795;BME280;59641;45.188;5.712;2023-04-23T12:51:03;98468.00;;;20.77;47.89
71795;BME280;59641;45.188;5.712;2023-04-23T12:53:30;98470.44;;;20.78;47.88
71795;BME280;59641;45.188;5.712;2023-04-23T12:55:56;98473.97;;;20.79;47.91
71795;BME280;59641;45.188;5.712;2023-04-23T12:58:21;98467.38;;;20.80;48.12
71795;BME280;59641;45.188;5.712;2023-04-23T13:00:46;98462.72;;;20.80;47.44